Time;durP1;ratioP1;P1;durP2;ratioP2;P2;SDS_P1;SDS_P2;PMS_P1;PMS_P2;Temp;Humidity;BMP_temperature;BMP_pressure;BME280_temperature;BME280_humidity;BME280_pressure;Samples;Min_cycle;Max_cycle;Signal;HPM_P1;HPM_P2
2023/05/15 00:00:32;;;;;;;;;37.25;32.50;;;;;16.73;56.20;101216.94;4976269;28;45087;-64
2023/05/15 00:02:57;;;;;;;;;42.00;34.00;;;;;16.63;56.51;101208.72;4981023;28;45048;-65
2023/05/15 00:05:23;;;;;;;;;33.50;29.50;;;;;16.63;57.05;101223.13;4994954;28;45606;-65
2023/05/15 00:07:48;;;;;;;;;38.75;34.50;;;;;16.59;57.55;101223.97;4989134;28;45349;-65
2023/05/15 00:10:14;;;;;;;;;33.50;29.50;;;;;16.49;57.60;101222.09;4989710;28;45073;-64
2023/05/15 00:12:39;;;;;;;;;41.00;36.50;;;;;16.51;57.29;101220.31;4985701;28;45080;-64
2023/05/15 00:15:05;;;;;;;;;40.50;33.50;;;;;16.50;57.58;101211.31;4976590;28;46777;-64
2023/05/15 00:17:31;;;;;;;;;39.00;34.00;;;;;16.50;57.37;101213.09;4981268;28;45251;-64
2023/05/15 00:19:58;;;;;;;;;39.00;34.50;;;;;16.42;57.17;101196.88;4988191;28;45368;-64
2023/05/15 00:22:24;;;;;;;;;31.00;30.75;;;;;16.50;57.57;101207.69;4989101;28;45160;-65
2023/05/15 00:24:50;;;;;;;;;47.00;36.00;;;;;16.44;57.25;101199.56;4989054;28;45197;-65
2023/05/15 00:27:15;;;;;;;;;42.75;36.25;;;;;16.50;57.48;101203.22;4983972;28;45219;-64
2023/05/15 00:29:40;;;;;;;;;41.75;33.25;;;;;16.44;57.42;101205.88;4978856;28;46161;-65
2023/05/15 00:32:06;;;;;;;;;43.25;35.00;;;;;16.47;57.12;101208.59;4989309;28;45188;-65
2023/05/15 00:34:31;;;;;;;;;41.25;35.75;;;;;16.39;57.57;101186.94;4981319;28;45478;-64
2023/05/15 00:36:57;;;;;;;;;44.00;34.50;;;;;16.42;57.66;101194.16;4976626;28;45190;-65
2023/05/15 00:39:23;;;;;;;;;38.75;33.50;;;;;16.40;57.79;101196.84;4989569;28;45037;-64
2023/05/15 00:41:50;;;;;;;;;48.75;36.75;;;;;16.40;57.30;101194.16;4980454;28;45163;-65
2023/05/15 00:44:17;;;;;;;;;42.75;34.00;;;;;16.30;57.73;101170.69;4985580;28;46303;-66
2023/05/15 00:46:45;;;;;;;;;35.25;33.25;;;;;16.01;57.81;101129.97;4988322;28;45246;-65
2023/05/15 00:49:13;;;;;;;;;38.75;33.75;;;;;16.20;58.09;101175.09;4988466;28;44812;-64
2023/05/15 00:51:42;;;;;;;;;38.00;34.75;;;;;16.15;58.25;101190.31;4983262;28;45172;-64
2023/05/15 00:54:08;;;;;;;;;42.75;36.50;;;;;16.10;58.41;101194.75;4998946;28;46576;-64
2023/05/15 00:56:34;;;;;;;;;55.25;40.25;;;;;16.08;59.00;101191.13;4986753;27;45112;-64
2023/05/15 00:59:02;;;;;;;;;51.25;37.50;;;;;16.05;58.90;101182.09;4986542;28;45039;-64
2023/05/15 01:01:32;;;;;;;;;45.00;38.00;;;;;15.98;58.79;101175.72;4983669;28;45306;-64
2023/05/15 01:03:58;;;;;;;;;47.75;36.25;;;;;16.05;58.72;101182.09;4993141;28;46075;-64
2023/05/15 01:06:24;;;;;;;;;43.00;37.00;;;;;16.03;59.15;101182.97;4982005;28;45144;-64
2023/05/15 01:08:52;;;;;;;;;48.00;34.75;;;;;15.98;58.86;101178.44;4975781;28;45177;-66
2023/05/15 01:11:18;;;;;;;;;47.75;36.00;;;;;15.96;59.02;101180.22;4990634;28;44952;-64
2023/05/15 01:13:44;;;;;;;;;49.50;37.75;;;;;15.94;59.14;101190.97;4985239;28;46281;-64
2023/05/15 01:16:10;;;;;;;;;45.25;38.25;;;;;15.81;59.44;101175.56;4987159;28;45083;-64
2023/05/15 01:18:35;;;;;;;;;44.25;35.00;;;;;15.90;59.52;101182.84;4970530;28;45492;-64
2023/05/15 01:21:04;;;;;;;;;48.00;37.50;;;;;15.84;59.59;101197.16;4967144;28;45228;-63
2023/05/15 01:23:35;;;;;;;;;48.75;36.00;;;;;15.81;59.61;101189.91;4963712;28;47225;-64
2023/05/15 01:26:33;;;;;;;;;50.50;37.75;;;;;15.81;59.89;101187.22;4972254;28;45470;-65
2023/05/15 01:29:15;;;;;;;;;53.00;39.75;;;;;15.74;59.59;101179.94;4976639;28;45206;-64
2023/05/15 01:31:42;;;;;;;;;44.25;35.75;;;;;15.72;59.83;101167.31;4976895;28;45136;-64
2023/05/15 01:34:10;;;;;;;;;53.50;40.75;;;;;15.71;59.50;101176.31;4982849;28;46595;-64
2023/05/15 01:36:41;;;;;;;;;58.50;42.50;;;;;15.74;59.77;101196.09;4978611;28;45099;-64
2023/05/15 01:39:09;;;;;;;;;52.00;41.25;;;;;15.64;59.96;101194.16;4988706;28;45254;-65
2023/05/15 01:41:45;;;;;;;;;49.00;40.00;;;;;15.53;60.53;101193.13;4984487;28;45106;-64
2023/05/15 01:44:16;;;;;;;;;43.75;36.75;;;;;15.54;60.88;101193.16;4979289;28;45361;-64
2023/05/15 01:46:48;;;;;;;;;51.75;38.75;;;;;15.52;60.59;101192.19;4984491;28;45126;-64
2023/05/15 01:49:16;;;;;;;;;46.75;37.75;;;;;15.55;60.37;101194.06;4986499;28;45176;-64
2023/05/15 01:51:44;;;;;;;;;47.00;38.25;;;;;15.47;60.88;101183.16;4982842;28;44953;-64
2023/05/15 01:54:12;;;;;;;;;50.50;40.25;;;;;15.51;60.54;101193.13;4988330;28;46092;-65
2023/05/15 01:56:39;;;;;;;;;50.25;40.50;;;;;15.51;60.37;101186.78;4981033;28;45016;-66
2023/05/15 01:59:07;;;;;;;;;52.25;44.50;;;;;15.54;60.54;101195.84;4987253;28;45081;-65
2023/05/15 02:01:35;;;;;;;;;45.50;38.75;;;;;15.51;60.27;101184.09;4985336;28;45303;-65
2023/05/15 02:04:02;;;;;;;;;53.00;37.75;;;;;15.48;60.29;101193.06;4987965;28;45409;-65
2023/05/15 02:06:28;;;;;;;;;52.50;38.50;;;;;15.38;60.01;101174.97;4988023;28;45110;-64
2023/05/15 02:08:57;;;;;;;;;53.75;39.75;;;;;15.32;60.12;101180.28;4981735;28;45181;-64
2023/05/15 02:11:22;;;;;;;;;52.50;39.00;;;;;15.38;60.29;101193.84;4973526;28;45326;-65
2023/05/15 02:13:48;;;;;;;;;50.50;39.50;;;;;15.37;60.37;101192.91;4982885;28;46143;-64
2023/05/15 02:16:13;;;;;;;;;47.50;37.25;;;;;15.37;59.80;101198.28;4988399;28;45012;-63
2023/05/15 02:18:40;;;;;;;;;51.00;39.00;;;;;15.30;59.95;101193.72;4984293;28;45095;-64
2023/05/15 02:21:05;;;;;;;;;47.25;37.25;;;;;15.13;60.60;101192.56;4978863;28;45159;-65
2023/05/15 02:23:31;;;;;;;;;53.50;40.00;;;;;14.91;61.02;101184.16;4981312;28;45940;-65
2023/05/15 02:26:20;;;;;;;;;55.50;40.75;;;;;14.71;61.61;101181.16;4986095;28;45180;-65
2023/05/15 02:28:48;;;;;;;;;49.75;37.75;;;;;14.78;61.61;101195.59;4977352;28;44962;-65
2023/05/15 02:31:25;;;;;;;;;45.25;35.25;;;;;14.78;61.58;101188.44;4981372;28;45032;-65
2023/05/15 02:34:02;;;;;;;;;50.75;38.50;;;;;14.76;61.43;101190.19;4990313;28;45123;-65
2023/05/15 02:36:32;;;;;;;;;49.50;41.00;;;;;14.74;61.71;101192.88;4983203;28;45036;-65
2023/05/15 02:38:58;;;;;;;;;52.50;40.00;;;;;14.77;61.17;101189.34;4988758;28;45053;-65
2023/05/15 02:41:24;;;;;;;;;49.75;37.25;;;;;14.77;61.28;101188.44;4989400;28;45111;-64
2023/05/15 02:43:51;;;;;;;;;52.25;40.50;;;;;14.68;60.86;101187.41;4981428;28;45879;-64
2023/05/15 02:46:19;;;;;;;;;49.25;39.25;;;;;14.41;61.38;101171.66;4983711;28;45249;-64
2023/05/15 02:48:45;;;;;;;;;51.50;38.00;;;;;14.37;62.06;101185.94;4988100;28;45249;-64
2023/05/15 02:51:11;;;;;;;;;50.75;40.75;;;;;14.25;62.11;101159.72;4985892;28;45146;-63
2023/05/15 02:53:40;;;;;;;;;45.25;35.75;;;;;14.28;62.55;101178.59;4980982;28;46034;-65
2023/05/15 02:56:06;;;;;;;;;51.75;38.75;;;;;14.24;62.49;101175.81;4984567;28;45080;-64
2023/05/15 02:58:32;;;;;;;;;54.25;39.75;;;;;14.19;63.05;101181.13;4976075;28;45278;-64
2023/05/15 03:00:57;;;;;;;;;52.75;40.25;;;;;14.18;62.41;101177.53;4984763;28;45120;-64
2023/05/15 03:03:23;;;;;;;;;53.50;38.25;;;;;14.18;62.63;101176.63;4989063;28;47154;-64
2023/05/15 03:05:48;;;;;;;;;49.50;40.00;;;;;14.23;62.34;101182.97;4987980;28;54091;-65
2023/05/15 03:08:13;;;;;;;;;51.50;39.50;;;;;14.19;62.01;101171.28;4984014;28;45731;-64
2023/05/15 03:10:39;;;;;;;;;47.00;38.00;;;;;14.21;62.33;101175.78;4986581;28;45084;-64
2023/05/15 03:13:04;;;;;;;;;50.25;39.50;;;;;14.22;61.66;101178.47;4987218;28;45981;-65
2023/05/15 03:15:29;;;;;;;;;53.00;40.00;;;;;14.27;61.80;101179.50;4976574;28;45358;-65
2023/05/15 03:17:55;;;;;;;;;46.50;39.25;;;;;14.29;61.78;101183.09;4972745;28;45424;-64
2023/05/15 03:20:20;;;;;;;;;41.00;32.50;;;;;14.23;61.43;101161.47;4984853;28;45200;-64
2023/05/15 03:22:45;;;;;;;;;51.00;40.00;;;;;14.35;61.36;101188.59;4987663;28;62054;-64
2023/05/15 03:25:11;;;;;;;;;44.25;35.00;;;;;14.37;61.27;101186.84;4981668;28;45437;-65
2023/05/15 03:27:37;;;;;;;;;45.75;37.00;;;;;14.36;61.12;101166.19;4982967;28;45511;-64
2023/05/15 03:30:04;;;;;;;;;45.25;36.00;;;;;14.42;60.99;101169.88;4975848;28;45446;-63
2023/05/15 03:32:29;;;;;;;;;50.50;39.25;;;;;14.35;60.53;101177.84;4982973;28;45452;-64
2023/05/15 03:34:54;;;;;;;;;47.00;35.50;;;;;14.39;60.67;101162.66;4980786;28;45107;-63
2023/05/15 03:37:20;;;;;;;;;47.25;36.50;;;;;14.46;59.91;101171.75;4984281;28;44979;-64
2023/05/15 03:39:45;;;;;;;;;49.00;35.75;;;;;14.19;59.96;101141.72;4987061;28;45276;-65
2023/05/15 03:42:10;;;;;;;;;48.00;37.00;;;;;14.27;60.51;101167.81;4974305;28;46133;-64
2023/05/15 03:44:36;;;;;;;;;43.00;35.00;;;;;14.19;61.12;101171.28;4978296;28;45104;-66
2023/05/15 03:47:01;;;;;;;;;46.00;39.00;;;;;14.10;60.86;101167.50;4984233;27;45009;-66
2023/05/15 03:49:26;;;;;;;;;48.25;39.75;;;;;14.06;61.00;101146.84;4986267;28;44992;-64
2023/05/15 03:51:52;;;;;;;;;48.75;36.75;;;;;14.16;60.82;101165.84;4974868;28;45825;-64
2023/05/15 03:54:17;;;;;;;;;45.50;38.00;;;;;14.23;61.17;101176.72;4971844;28;45389;-65
2023/05/15 03:56:43;;;;;;;;;46.50;37.00;;;;;14.26;60.95;101171.41;4966053;27;45848;-64
2023/05/15 03:59:08;;;;;;;;;42.00;33.25;;;;;14.26;60.71;101177.66;4966766;28;45282;-64
2023/05/15 04:01:34;;;;;;;;;43.00;32.50;;;;;14.30;60.34;101173.25;4972540;28;45654;-64
2023/05/15 04:03:59;;;;;;;;;45.25;35.75;;;;;14.28;60.52;101170.53;4972335;28;45463;-64
2023/05/15 04:06:24;;;;;;;;;40.25;34.50;;;;;14.35;60.02;101171.53;4955214;28;45527;-64
2023/05/15 04:08:50;;;;;;;;;46.75;36.50;;;;;14.28;60.48;101167.84;4991836;28;45548;-65
2023/05/15 04:11:15;;;;;;;;;46.25;36.25;;;;;14.26;60.33;101157.97;4957683;28;45503;-64
2023/05/15 04:13:41;;;;;;;;;46.00;36.25;;;;;14.00;60.04;101127.03;4970155;28;45520;-63
2023/05/15 04:16:07;;;;;;;;;47.75;36.50;;;;;14.29;60.50;101169.66;4971978;28;45383;-64
2023/05/15 04:18:32;;;;;;;;;44.75;36.00;;;;;14.25;60.01;101161.50;4967819;28;45494;-64
2023/05/15 04:23:54;;;;;;;;;48.00;38.00;;;;;14.29;59.41;101179.53;5643516;22;47068;-64
2023/05/15 04:26:19;;;;;;;;;49.75;39.50;;;;;14.26;59.49;101184.84;4984345;28;45392;-64
2023/05/15 04:28:45;;;;;;;;;50.25;37.75;;;;;14.19;59.83;101187.41;4976384;28;45476;-63
2023/05/15 04:31:10;;;;;;;;;47.25;35.25;;;;;14.28;59.59;101185.75;4977826;28;45974;-64
2023/05/15 04:33:38;;;;;;;;;44.25;36.75;;;;;14.34;59.75;101178.72;4999144;28;45715;-64
2023/05/15 04:36:04;;;;;;;;;46.50;34.50;;;;;14.32;58.84;101180.47;5001798;28;45591;-65
2023/05/15 04:38:30;;;;;;;;;46.00;37.50;;;;;14.28;59.00;101172.31;4992749;28;45308;-65
2023/05/15 04:40:55;;;;;;;;;53.25;39.75;;;;;14.14;59.59;101178.34;4979891;28;47593;-64
2023/05/15 04:43:20;;;;;;;;;48.50;36.00;;;;;14.01;59.91;101179.00;4985904;28;50653;-64
2023/05/15 04:45:46;;;;;;;;;51.75;36.00;;;;;14.03;60.50;101174.56;4975106;28;45568;-64
2023/05/15 04:48:11;;;;;;;;;39.75;33.50;;;;;13.89;60.34;101171.63;4981069;28;45531;-62
2023/05/15 04:50:36;;;;;;;;;47.25;36.00;;;;;13.81;61.54;101170.56;4991705;28;46366;-64
2023/05/15 04:53:02;;;;;;;;;36.75;32.25;;;;;13.72;61.30;101165.00;4992109;28;62790;-62
2023/05/15 04:55:27;;;;;;;;;47.25;38.25;;;;;13.69;61.44;101167.59;5001098;28;45536;-61
2023/05/15 04:57:53;;;;;;;;;50.75;39.50;;;;;13.66;62.53;101165.78;5008625;28;45100;-63
2023/05/15 05:00:19;;;;;;;;;46.00;35.00;;;;;13.67;62.59;101162.22;4983665;28;48530;-61
2023/05/15 05:02:44;;;;;;;;;43.75;36.25;;;;;13.78;62.40;101171.38;5000004;28;45320;-60
2023/05/15 05:05:10;;;;;;;;;39.75;33.00;;;;;13.85;61.55;101169.72;5002718;28;45439;-61
2023/05/15 05:07:35;;;;;;;;;43.25;36.50;;;;;13.89;60.99;101166.25;5005362;28;45336;-61
2023/05/15 05:10:03;;;;;;;;;45.75;34.75;;;;;13.92;61.30;101170.75;4978190;28;47220;-64
2023/05/15 05:12:28;;;;;;;;;45.75;35.75;;;;;13.93;60.92;101172.56;4995647;28;45405;-61
2023/05/15 05:14:55;;;;;;;;;44.00;35.50;;;;;14.00;61.04;101174.50;4998250;28;45332;-62
2023/05/15 05:17:20;;;;;;;;;43.50;35.50;;;;;14.00;60.68;101156.56;4995899;28;45341;-62
2023/05/15 05:19:45;;;;;;;;;49.25;38.75;;;;;14.07;60.59;101162.97;4994059;28;46467;-61
2023/05/15 05:22:11;;;;;;;;;48.00;38.00;;;;;14.08;60.43;101169.28;5000044;28;45714;-61
2023/05/15 05:24:36;;;;;;;;;54.50;42.75;;;;;14.09;60.81;101166.63;4994541;28;45364;-62
2023/05/15 05:27:03;;;;;;;;;51.25;38.75;;;;;14.07;60.46;101154.03;4992592;28;45348;-61
2023/05/15 05:29:29;;;;;;;;;46.00;37.25;;;;;14.21;60.43;101174.00;4990666;28;47342;-61
2023/05/15 05:31:55;;;;;;;;;45.75;36.25;;;;;14.20;60.46;101158.72;5000232;28;44973;-61
2023/05/15 05:34:21;;;;;;;;;47.25;37.25;;;;;14.24;60.75;101160.63;5008635;28;44997;-61
2023/05/15 05:36:47;;;;;;;;;44.50;33.75;;;;;14.28;60.52;101169.63;5001835;28;45631;-61
2023/05/15 05:39:13;;;;;;;;;50.00;39.50;;;;;14.30;60.82;101170.56;5005640;28;45348;-62
2023/05/15 05:41:38;;;;;;;;;52.50;39.50;;;;;14.30;60.90;101162.50;4998731;28;45332;-65
2023/05/15 05:44:03;;;;;;;;;46.75;37.00;;;;;14.42;60.39;101164.50;5004673;28;45434;-63
2023/05/15 05:46:29;;;;;;;;;55.25;40.75;;;;;14.41;60.62;101160.00;5012574;28;45265;-64
2023/05/15 05:48:54;;;;;;;;;45.50;35.00;;;;;14.46;60.87;101166.38;5011880;28;45865;-63
2023/05/15 05:51:19;;;;;;;;;46.00;38.25;;;;;14.46;61.15;101169.06;5009522;28;45264;-64
2023/05/15 05:53:45;;;;;;;;;55.50;45.00;;;;;14.45;61.43;101164.53;5004564;28;45341;-64
2023/05/15 05:56:10;;;;;;;;;43.00;33.00;;;;;14.52;61.85;101164.69;5000221;28;45683;-62
2023/05/15 05:58:36;;;;;;;;;50.00;37.25;;;;;14.49;62.02;101164.63;5007756;28;45299;-62
2023/05/15 06:01:01;;;;;;;;;47.75;33.50;;;;;14.49;61.85;101161.94;5008095;28;45310;-62
2023/05/15 06:03:27;;;;;;;;;71.75;52.00;;;;;14.55;61.95;101171.88;5012196;28;44978;-61
2023/05/15 06:05:52;;;;;;;;;49.75;38.75;;;;;14.46;62.17;101156.50;5013625;28;45250;-63
2023/05/15 06:08:19;;;;;;;;;54.75;38.50;;;;;14.57;62.54;101171.03;5015211;28;45913;-62
2023/05/15 06:10:44;;;;;;;;;49.75;37.25;;;;;14.67;62.65;101173.94;5013825;28;45109;-63
2023/05/15 06:13:10;;;;;;;;;46.00;35.25;;;;;14.68;62.66;101176.66;5014917;28;45407;-64
2023/05/15 06:15:36;;;;;;;;;43.75;36.00;;;;;14.64;62.98;101173.88;5013113;28;45089;-65
2023/05/15 06:18:01;;;;;;;;;45.50;36.75;;;;;14.64;62.77;101165.81;5011348;28;44961;-63
2023/05/15 06:20:27;;;;;;;;;39.25;32.00;;;;;14.73;63.04;101179.38;5013416;28;45159;-63
2023/05/15 06:22:52;;;;;;;;;41.75;30.00;;;;;14.74;62.74;101179.41;4996224;28;45440;-61
2023/05/15 06:25:17;;;;;;;;;48.25;35.50;;;;;14.72;63.88;101182.97;5009282;28;45364;-64
2023/05/15 06:27:43;;;;;;;;;46.50;35.50;;;;;14.73;63.83;101190.16;5014861;28;45137;-65
2023/05/15 06:30:09;;;;;;;;;45.00;35.50;;;;;14.76;63.41;101183.94;5014551;28;45174;-63
2023/05/15 06:32:34;;;;;;;;;45.00;32.50;;;;;14.78;63.46;101192.91;5014682;28;44966;-64
2023/05/15 06:35:00;;;;;;;;;39.25;32.50;;;;;14.66;63.63;101170.31;5012757;28;45081;-62
2023/05/15 06:37:26;;;;;;;;;44.50;35.50;;;;;14.76;63.89;101190.19;5011908;28;45366;-63
2023/05/15 06:39:51;;;;;;;;;44.50;33.50;;;;;14.81;63.88;101190.28;5012190;28;45463;-64
2023/05/15 06:42:16;;;;;;;;;39.25;33.50;;;;;14.74;63.83;101184.78;5011181;28;52500;-65
2023/05/15 06:44:42;;;;;;;;;47.00;33.00;;;;;14.80;63.87;101191.16;5011547;28;45505;-62
2023/05/15 06:47:07;;;;;;;;;46.75;33.00;;;;;14.82;63.97;101176.84;5011267;28;45352;-62
2023/05/15 06:49:32;;;;;;;;;47.75;35.25;;;;;14.82;64.06;101167.88;5011504;28;45393;-63
2023/05/15 06:51:58;;;;;;;;;45.75;33.50;;;;;14.97;63.69;101183.38;5012043;28;45319;-65
2023/05/15 06:54:23;;;;;;;;;48.50;38.50;;;;;15.03;63.77;101183.44;5012221;28;45100;-64
2023/05/15 06:56:48;;;;;;;;;50.00;36.50;;;;;15.08;63.64;101184.44;4999911;28;45990;-65
2023/05/15 06:59:14;;;;;;;;;47.00;34.75;;;;;15.16;63.40;101187.22;4992705;28;45185;-63
2023/05/15 07:01:45;;;;;;;;;37.00;32.25;;;;;15.22;63.74;101182.81;4991945;28;45340;-63
2023/05/15 07:04:10;;;;;;;;;46.25;37.00;;;;;15.24;63.26;101189.13;4992352;28;45215;-63
2023/05/15 07:06:36;;;;;;;;;43.50;33.75;;;;;15.20;63.15;101184.59;4992088;28;45287;-65
2023/05/15 07:09:03;;;;;;;;;45.00;32.50;;;;;15.20;63.21;101176.53;4992058;28;45114;-63
2023/05/15 07:11:29;;;;;;;;;50.25;39.25;;;;;15.33;62.82;101182.06;4991575;28;45186;-63
2023/05/15 07:13:54;;;;;;;;;40.00;32.50;;;;;15.24;62.53;101159.50;4991554;28;45042;-62
2023/05/15 07:16:20;;;;;;;;;44.25;33.25;;;;;15.20;62.97;101165.75;4991526;28;45002;-64
2023/05/15 07:18:45;;;;;;;;;46.25;35.00;;;;;15.19;63.46;101168.44;4991174;28;45180;-63
2023/05/15 07:21:10;;;;;;;;;49.00;36.25;;;;;15.25;63.36;101180.19;4990933;28;45348;-63
2023/05/15 07:23:36;;;;;;;;;39.75;31.75;;;;;15.25;63.71;101174.81;4993935;28;44967;-63
2023/05/15 07:26:01;;;;;;;;;42.25;34.00;;;;;15.24;63.39;101167.59;4991361;28;45134;-62
2023/05/15 07:28:26;;;;;;;;;41.75;32.75;;;;;15.28;63.13;101163.19;4991778;28;44880;-65
2023/05/15 07:30:52;;;;;;;;;35.00;31.50;;;;;15.36;63.05;101174.97;4992430;28;49110;-63
2023/05/15 07:33:17;;;;;;;;;37.00;29.75;;;;;15.41;63.05;101169.63;4993571;28;45321;-65
2023/05/15 07:35:43;;;;;;;;;40.50;32.75;;;;;15.38;62.69;101164.22;4993750;28;45026;-64
2023/05/15 07:38:08;;;;;;;;;42.25;32.75;;;;;15.53;62.78;101180.56;4993798;28;48937;-63
2023/05/15 07:40:33;;;;;;;;;35.75;30.50;;;;;15.52;63.19;101178.75;4993688;28;45121;-61
2023/05/15 07:42:59;;;;;;;;;38.00;32.00;;;;;15.50;62.96;101175.13;4994076;28;44994;-63
2023/05/15 07:45:24;;;;;;;;;40.25;35.00;;;;;15.54;62.72;101174.31;4992545;28;45463;-63
2023/05/15 07:47:50;;;;;;;;;34.50;32.00;;;;;15.55;62.94;101169.81;4991695;28;46276;-62
2023/05/15 07:50:16;;;;;;;;;39.25;30.75;;;;;15.54;62.93;101160.84;4991040;28;45275;-64
2023/05/15 07:52:42;;;;;;;;;46.25;36.25;;;;;15.69;62.85;101175.34;4991797;28;45468;-63
2023/05/15 07:55:08;;;;;;;;;41.50;31.75;;;;;15.77;62.42;101177.31;4990861;28;45120;-63
2023/05/15 07:57:34;;;;;;;;;41.25;31.00;;;;;15.78;62.29;101181.78;4991461;28;45003;-64
2023/05/15 08:00:01;;;;;;;;;43.25;33.50;;;;;15.73;62.31;101171.84;4991709;28;44974;-63
2023/05/15 08:02:26;;;;;;;;;44.75;37.50;;;;;15.77;61.54;101171.94;4991740;28;45022;-65
2023/05/15 08:04:51;;;;;;;;;40.00;34.50;;;;;15.85;62.25;101177.38;4991599;28;45803;-63
2023/05/15 08:07:17;;;;;;;;;41.50;33.50;;;;;15.85;62.01;101174.69;4973051;28;48210;-63
2023/05/15 08:09:42;;;;;;;;;40.25;33.25;;;;;15.95;62.14;101178.41;4991558;28;45188;-64
2023/05/15 08:12:19;;;;;;;;;39.25;32.75;;;;;16.00;61.85;101179.34;4990580;28;45003;-63
2023/05/15 08:14:52;;;;;;;;;44.50;34.25;;;;;16.00;61.70;101180.28;4991100;28;46521;-62
2023/05/15 08:17:18;;;;;;;;;42.75;33.75;;;;;15.95;61.71;101181.97;4992082;28;44962;-63
2023/05/15 08:19:43;;;;;;;;;40.50;34.25;;;;;15.83;62.34;101181.84;4972972;28;44992;-63
2023/05/15 08:22:09;;;;;;;;;49.50;34.25;;;;;15.78;62.36;101180.91;4973438;28;45317;-62
2023/05/15 08:24:34;;;;;;;;;42.50;34.00;;;;;15.76;62.92;101171.91;4989966;28;46883;-63
2023/05/15 08:27:00;;;;;;;;;44.25;35.25;;;;;15.75;62.53;101165.56;4990055;28;45081;-63
2023/05/15 08:29:25;;;;;;;;;43.75;34.25;;;;;15.49;62.80;101127.53;4973957;28;44975;-64
2023/05/15 08:31:52;;;;;;;;;40.50;33.50;;;;;15.69;63.15;101165.50;4991587;28;45467;-62
2023/05/15 08:34:17;;;;;;;;;38.50;33.50;;;;;15.61;63.49;101170.78;4990531;28;46037;-64
2023/05/15 08:36:43;;;;;;;;;38.00;28.75;;;;;15.62;63.62;101177.06;4989522;28;45015;-63
2023/05/15 08:39:08;;;;;;;;;42.00;34.25;;;;;15.61;63.37;101162.72;4974930;28;45078;-63
2023/05/15 08:41:46;;;;;;;;;41.00;33.00;;;;;15.70;63.67;101174.47;4991740;28;45563;-62
2023/05/15 08:44:12;;;;;;;;;37.75;27.25;;;;;15.78;63.05;101159.34;4990853;28;45482;-62
2023/05/15 08:46:38;;;;;;;;;42.75;34.00;;;;;15.90;62.96;101162.16;4990625;28;44913;-63
2023/05/15 08:49:18;;;;;;;;;39.75;32.00;;;;;15.95;62.73;101156.84;4991150;28;45184;-62
2023/05/15 08:51:44;;;;;;;;;37.50;32.75;;;;;16.04;62.13;101159.63;4990001;28;45235;-62
2023/05/15 08:54:10;;;;;;;;;40.25;35.50;;;;;16.16;62.42;101165.13;4989888;28;45281;-64
2023/05/15 08:56:36;;;;;;;;;35.00;30.00;;;;;16.26;61.86;101168.84;4990812;28;45213;-62
2023/05/15 08:59:02;;;;;;;;;41.50;33.00;;;;;16.09;61.96;101109.38;4992338;28;44947;-63
2023/05/15 09:01:29;;;;;;;;;54.75;42.00;;;;;16.42;61.62;101159.09;4991843;28;45147;-62
2023/05/15 09:03:54;;;;;;;;;48.50;38.50;;;;;16.49;60.98;101154.66;4989172;28;46647;-62
2023/05/15 09:06:21;;;;;;;;;50.00;36.25;;;;;16.56;61.05;101157.44;4973702;28;48852;-63
2023/05/15 09:08:48;;;;;;;;;44.25;36.25;;;;;16.57;60.81;101152.94;4990951;28;45061;-62
2023/05/15 09:11:15;;;;;;;;;41.75;32.25;;;;;16.71;60.50;101155.72;4990117;28;45392;-62
2023/05/15 09:13:40;;;;;;;;;40.00;33.00;;;;;16.77;60.28;101145.88;4990848;28;46009;-62
2023/05/15 09:16:06;;;;;;;;;43.25;32.75;;;;;16.85;59.60;101159.47;4989742;28;45018;-62
2023/05/15 09:18:32;;;;;;;;;38.00;30.75;;;;;16.86;59.55;101157.69;4989636;28;45087;-62
2023/05/15 09:21:27;;;;;;;;;43.50;36.25;;;;;16.92;59.81;101152.31;4988721;28;45055;-62
2023/05/15 09:23:54;;;;;;;;;38.75;32.75;;;;;17.00;59.71;101149.69;4990965;28;45797;-63
2023/05/15 09:26:20;;;;;;;;;44.50;36.75;;;;;17.08;59.20;101158.75;4990233;28;45118;-64
2023/05/15 09:28:47;;;;;;;;;35.75;32.50;;;;;17.15;59.29;101156.97;4989576;28;45167;-64
2023/05/15 09:31:13;;;;;;;;;52.00;41.75;;;;;17.18;59.03;101148.91;4990397;28;45280;-63
2023/05/15 09:33:40;;;;;;;;;46.00;34.75;;;;;17.18;58.62;101135.41;4989847;28;45492;-64
2023/05/15 09:36:07;;;;;;;;;46.25;32.25;;;;;17.25;58.44;101153.44;4990891;28;45129;-63
2023/05/15 09:38:34;;;;;;;;;36.25;30.75;;;;;17.25;58.81;101142.63;4988236;28;45102;-65
2023/05/15 09:41:02;;;;;;;;;40.00;30.75;;;;;17.30;58.67;101152.53;4989399;28;44966;-64
2023/05/15 09:43:28;;;;;;;;;45.00;33.75;;;;;17.35;58.54;101147.16;4988433;28;46852;-63
2023/05/15 09:45:54;;;;;;;;;35.75;33.00;;;;;17.40;58.19;101139.09;4988871;28;45368;-63
2023/05/15 09:48:20;;;;;;;;;33.50;30.75;;;;;17.40;57.65;101137.28;4989639;28;45013;-63
2023/05/15 09:50:46;;;;;;;;;31.75;30.00;;;;;17.59;57.34;101148.19;4991024;28;45071;-64
2023/05/15 09:53:12;;;;;;;;;40.25;31.75;;;;;17.71;57.27;101145.53;4989699;28;45535;-64
2023/05/15 09:55:40;;;;;;;;;45.75;35.50;;;;;17.83;56.82;101150.94;4988404;28;44933;-64
2023/05/15 09:58:11;;;;;;;;;37.75;32.75;;;;;17.86;56.55;101142.84;4989623;28;45315;-63
2023/05/15 10:00:38;;;;;;;;;34.50;28.00;;;;;17.93;56.24;101153.72;4988893;28;45057;-65
2023/05/15 10:03:05;;;;;;;;;40.50;30.75;;;;;17.94;56.56;101152.84;4989109;28;45160;-64
2023/05/15 10:05:31;;;;;;;;;43.50;32.50;;;;;17.97;56.52;101164.56;4988915;28;44848;-65
2023/05/15 10:07:59;;;;;;;;;35.25;31.00;;;;;17.95;56.54;101162.75;4987721;28;45384;-64
2023/05/15 10:10:26;;;;;;;;;45.25;32.50;;;;;17.95;56.33;101158.25;4990141;28;45027;-64
2023/05/15 10:12:54;;;;;;;;;47.25;34.75;;;;;17.97;56.32;101166.38;4989374;28;45657;-65
2023/05/15 10:15:21;;;;;;;;;42.25;34.75;;;;;17.95;56.62;101160.03;4989067;28;45184;-64
2023/05/15 10:17:48;;;;;;;;;45.00;36.25;;;;;17.95;56.43;101155.56;4990144;28;44996;-66
2023/05/15 10:20:15;;;;;;;;;48.25;38.00;;;;;17.89;56.60;101162.75;4989912;28;45583;-65
2023/05/15 10:22:49;;;;;;;;;49.25;38.25;;;;;17.79;57.00;101162.66;4989574;28;45407;-65
2023/05/15 10:25:39;;;;;;;;;48.50;37.00;;;;;17.77;57.38;101160.84;4988844;28;45472;-63
2023/05/15 10:28:09;;;;;;;;;49.25;34.50;;;;;17.76;57.16;101159.94;4989998;28;44966;-65
2023/05/15 10:30:35;;;;;;;;;45.00;35.75;;;;;17.76;57.49;101170.75;4973997;28;45016;-63
2023/05/15 10:33:03;;;;;;;;;49.25;38.00;;;;;17.68;57.16;101146.41;4991191;28;45500;-63
2023/05/15 10:35:29;;;;;;;;;44.00;35.25;;;;;17.82;57.40;101159.97;4990570;28;44921;-64
2023/05/15 10:37:56;;;;;;;;;46.00;35.50;;;;;17.84;57.50;101151.88;4988857;28;45048;-63
2023/05/15 10:40:22;;;;;;;;;41.75;33.50;;;;;17.94;56.94;101144.72;4989759;28;45427;-65
2023/05/15 10:42:48;;;;;;;;;41.50;33.50;;;;;18.09;56.69;101152.88;4987700;28;45470;-64
2023/05/15 10:45:14;;;;;;;;;49.25;33.50;;;;;18.25;56.16;101148.41;4988688;28;44908;-64
2023/05/15 10:47:41;;;;;;;;;40.50;34.25;;;;;18.23;55.87;101137.56;4988965;28;45541;-63
2023/05/15 10:50:07;;;;;;;;;49.75;36.50;;;;;18.32;55.94;101147.50;4992397;28;45395;-65
2023/05/15 10:52:35;;;;;;;;;45.75;33.25;;;;;18.40;55.65;101142.97;4991545;28;46949;-64
2023/05/15 10:55:03;;;;;;;;;47.50;36.75;;;;;18.42;55.45;101138.47;4992449;28;45119;-65
2023/05/15 10:57:29;;;;;;;;;44.75;35.25;;;;;18.47;55.44;101138.47;4993813;28;45498;-64
2023/05/15 10:59:55;;;;;;;;;41.50;35.75;;;;;18.47;55.38;101133.06;4994461;28;45145;-64
2023/05/15 11:02:28;;;;;;;;;49.50;39.75;;;;;18.61;55.11;101143.91;4992949;28;44991;-64
2023/05/15 11:05:01;;;;;;;;;50.75;37.50;;;;;18.63;54.97;101139.38;4994597;28;45172;-64
2023/05/15 11:07:27;;;;;;;;;43.50;35.00;;;;;18.62;55.12;101136.69;4993713;28;45681;-64
2023/05/15 11:09:53;;;;;;;;;52.50;38.75;;;;;18.70;54.94;101133.06;4991371;28;45110;-65